Time;durP1;ratioP1;P1;durP2;ratioP2;P2;SDS_P1;SDS_P2;PMS_P1;PMS_P2;Temp;Humidity;BMP_temperature;BMP_pressure;BME280_temperature;BME280_humidity;BME280_pressure;Samples;Min_cycle;Max_cycle;Signal;HPM_P1;HPM_P2
2020/12/06 00:00:14;;;;;;;25.52;9.38;;;6.00;99.90;;;;;;4974112;28;20070;-65
2020/12/06 00:02:40;;;;;;;26.02;7.78;;;6.00;99.90;;;;;;4986687;28;20050;-65
2020/12/06 00:05:08;;;;;;;26.45;8.65;;;6.00;99.90;;;;;;4964194;28;20049;-65
2020/12/06 00:07:36;;;;;;;25.10;8.43;;;6.00;99.90;;;;;;4971102;28;20054;-65
2020/12/06 00:10:17;;;;;;;25.65;9.02;;;5.90;99.90;;;;;;4968800;28;20047;-65
2020/12/06 00:12:44;;;;;;;28.23;10.32;;;5.90;99.90;;;;;;4980326;28;20056;-65
2020/12/06 00:15:11;;;;;;;26.30;10.02;;;6.00;99.90;;;;;;4962054;28;20483;-65
2020/12/06 00:17:38;;;;;;;26.02;8.48;;;5.90;99.90;;;;;;4975821;28;20045;-65
2020/12/06 00:20:08;;;;;;;24.15;9.88;;;5.90;99.90;;;;;;4964125;28;20110;-65
2020/12/06 00:22:34;;;;;;;29.17;10.02;;;5.90;99.90;;;;;;4972835;28;20058;-65
2020/12/06 00:25:01;;;;;;;30.60;10.45;;;5.90;99.90;;;;;;4976500;28;20050;-65
2020/12/06 00:27:32;;;;;;;25.42;8.45;;;5.90;99.90;;;;;;4968853;28;20050;-65
2020/12/06 00:29:59;;;;;;;22.38;8.82;;;5.90;99.90;;;;;;4976118;28;20046;-65
2020/12/06 00:32:25;;;;;;;26.63;9.60;;;5.90;99.90;;;;;;4982968;28;20109;-65
2020/12/06 00:34:52;;;;;;;24.20;9.10;;;5.90;99.90;;;;;;4957596;28;20414;-65
2020/12/06 00:37:18;;;;;;;22.05;7.95;;;5.90;99.90;;;;;;4958594;28;20050;-65
2020/12/06 00:39:45;;;;;;;28.65;9.38;;;5.90;99.90;;;;;;4969969;28;20510;-65
2020/12/06 00:42:11;;;;;;;26.92;8.27;;;5.90;99.90;;;;;;4959094;28;20050;-65
2020/12/06 00:44:38;;;;;;;21.95;8.43;;;5.90;99.90;;;;;;4975575;28;20109;-65
2020/12/06 00:47:05;;;;;;;21.88;7.90;;;5.90;99.90;;;;;;4974083;28;20125;-65
2020/12/06 00:49:32;;;;;;;21.13;8.82;;;5.90;99.90;;;;;;4965801;28;20458;-65
2020/12/06 00:51:59;;;;;;;22.30;8.10;;;5.90;99.90;;;;;;4981838;28;20042;-65
2020/12/06 00:54:26;;;;;;;25.98;9.57;;;5.90;99.90;;;;;;4974530;28;20039;-65
2020/12/06 00:56:56;;;;;;;22.35;8.43;;;5.80;99.90;;;;;;4970421;28;20047;-65
2020/12/06 00:59:24;;;;;;;17.98;7.13;;;5.80;99.90;;;;;;4981935;28;20039;-65
2020/12/06 01:01:51;;;;;;;24.92;8.73;;;5.80;99.90;;;;;;4974681;28;20054;-65
2020/12/06 01:04:17;;;;;;;23.02;7.75;;;5.80;99.90;;;;;;4965064;28;20039;-65
2020/12/06 01:06:44;;;;;;;22.17;7.82;;;5.80;99.90;;;;;;4972885;28;20106;-65
2020/12/06 01:09:11;;;;;;;22.20;8.43;;;5.90;99.90;;;;;;4970065;28;20053;-65
2020/12/06 01:11:37;;;;;;;22.08;8.27;;;5.90;99.90;;;;;;4966903;28;20862;-65
2020/12/06 01:14:04;;;;;;;24.27;8.77;;;5.80;99.90;;;;;;4970727;28;20035;-65
2020/12/06 01:16:31;;;;;;;21.30;8.27;;;5.80;99.90;;;;;;4976137;28;20046;-65
2020/12/06 01:18:57;;;;;;;25.98;8.13;;;5.80;99.90;;;;;;4988539;28;20045;-65
2020/12/06 01:21:24;;;;;;;26.55;8.63;;;5.80;99.90;;;;;;4981073;28;20066;-65
2020/12/06 01:23:50;;;;;;;23.65;7.50;;;5.80;99.90;;;;;;4963340;28;20778;-65
2020/12/06 01:26:17;;;;;;;22.17;8.50;;;5.80;99.90;;;;;;4985705;28;20038;-65
2020/12/06 01:28:43;;;;;;;22.98;7.63;;;5.80;99.90;;;;;;4970151;28;20082;-65
2020/12/06 01:31:10;;;;;;;21.77;7.70;;;5.70;99.90;;;;;;4974477;28;20050;-65
2020/12/06 01:33:37;;;;;;;24.85;8.15;;;5.70;99.90;;;;;;4973559;28;20039;-65
2020/12/06 01:36:03;;;;;;;20.77;6.78;;;5.70;99.90;;;;;;4974644;28;20042;-65
2020/12/06 01:38:30;;;;;;;24.77;7.88;;;5.70;99.90;;;;;;5009715;28;20043;-65
2020/12/06 01:40:57;;;;;;;22.00;8.25;;;5.60;99.90;;;;;;4967077;28;20062;-65
2020/12/06 01:43:24;;;;;;;23.85;8.68;;;5.60;99.90;;;;;;4984074;28;20390;-65
2020/12/06 01:45:50;;;;;;;19.30;7.32;;;5.60;99.90;;;;;;4976770;28;20473;-65
2020/12/06 01:48:17;;;;;;;22.42;8.07;;;5.60;99.90;;;;;;4969255;28;20780;-65
2020/12/06 01:50:44;;;;;;;29.63;9.07;;;5.60;99.90;;;;;;4960568;28;20049;-65
2020/12/06 01:53:11;;;;;;;25.83;8.60;;;5.60;99.90;;;;;;4974127;28;20043;-65
2020/12/06 01:55:38;;;;;;;23.63;8.23;;;5.60;99.90;;;;;;4975788;28;20674;-65
2020/12/06 01:58:07;;;;;;;23.35;8.13;;;5.60;99.90;;;;;;4981713;28;20054;-65
2020/12/06 02:00:34;;;;;;;18.95;7.13;;;5.60;99.90;;;;;;4973947;28;20138;-65
2020/12/06 02:03:03;;;;;;;22.23;7.65;;;5.60;99.90;;;;;;4971203;28;20133;-65
2020/12/06 02:05:33;;;;;;;21.63;6.78;;;5.60;99.90;;;;;;4957269;28;20360;-65
2020/12/06 02:08:02;;;;;;;24.90;7.63;;;5.50;99.90;;;;;;4977617;28;20058;-65
2020/12/06 02:10:30;;;;;;;23.40;8.48;;;5.50;99.90;;;;;;4980830;28;20518;-65
2020/12/06 02:12:57;;;;;;;21.10;7.22;;;5.50;99.90;;;;;;4985823;28;20042;-65
2020/12/06 02:15:24;;;;;;;21.15;6.93;;;5.50;99.90;;;;;;4990692;28;20053;-65
2020/12/06 02:17:51;;;;;;;22.15;7.47;;;5.50;99.90;;;;;;5005220;28;20046;-65
2020/12/06 02:20:18;;;;;;;16.15;7.00;;;5.50;99.90;;;;;;4959701;28;20089;-65
2020/12/06 02:22:45;;;;;;;24.17;7.68;;;5.40;99.90;;;;;;4977620;28;20042;-65
2020/12/06 02:25:11;;;;;;;22.05;7.00;;;5.40;99.90;;;;;;4985130;28;20097;-65
2020/12/06 02:27:38;;;;;;;24.38;7.70;;;5.40;99.90;;;;;;4981775;28;20510;-65
2020/12/06 02:30:05;;;;;;;18.60;7.00;;;5.40;99.90;;;;;;4974385;28;20054;-65
2020/12/06 02:32:31;;;;;;;18.83;6.95;;;5.40;99.90;;;;;;4968662;28;20517;-65
2020/12/06 02:34:58;;;;;;;20.17;7.40;;;5.40;99.90;;;;;;4988545;28;20042;-65
2020/12/06 02:37:24;;;;;;;20.67;6.82;;;5.50;99.90;;;;;;4968971;28;20409;-65
2020/12/06 02:39:51;;;;;;;25.27;7.35;;;5.40;99.90;;;;;;4977077;28;20059;-65
2020/12/06 02:42:18;;;;;;;22.02;6.63;;;5.50;99.90;;;;;;4966087;28;20048;-65
2020/12/06 02:44:45;;;;;;;16.88;6.75;;;5.50;99.90;;;;;;4978953;28;20054;-65
2020/12/06 02:47:12;;;;;;;16.73;6.75;;;5.60;99.90;;;;;;4973836;28;20036;-65
2020/12/06 02:49:39;;;;;;;21.27;7.00;;;5.60;99.90;;;;;;4970248;28;20574;-65
2020/12/06 02:52:09;;;;;;;17.88;6.28;;;5.70;99.90;;;;;;4984177;28;20053;-65
2020/12/06 02:54:37;;;;;;;18.85;6.60;;;5.70;99.90;;;;;;4976626;28;20038;-65
2020/12/06 02:57:03;;;;;;;21.30;6.72;;;5.80;99.90;;;;;;4972275;28;20398;-65
2020/12/06 02:59:30;;;;;;;25.90;7.85;;;5.80;99.90;;;;;;4974958;28;20710;-65
2020/12/06 03:01:57;;;;;;;25.13;7.15;;;5.90;99.90;;;;;;4981690;28;20785;-65
2020/12/06 03:04:24;;;;;;;16.23;5.65;;;5.90;99.90;;;;;;4979786;28;20452;-65
2020/12/06 03:06:50;;;;;;;18.13;7.25;;;6.00;99.90;;;;;;4977216;28;20510;-65
2020/12/06 03:09:17;;;;;;;22.92;6.88;;;6.10;99.90;;;;;;4979194;28;20375;-65
2020/12/06 03:11:43;;;;;;;19.98;8.07;;;6.10;99.90;;;;;;4981655;28;20691;-65
2020/12/06 03:14:10;;;;;;;19.45;7.25;;;6.10;99.90;;;;;;4984191;28;20046;-65
2020/12/06 03:16:37;;;;;;;20.35;7.18;;;6.20;99.90;;;;;;4968587;28;20049;-65
2020/12/06 03:19:03;;;;;;;19.33;5.90;;;6.20;99.90;;;;;;4972627;28;20035;-65
2020/12/06 03:21:30;;;;;;;18.55;5.70;;;6.20;99.90;;;;;;4963279;28;20144;-65
2020/12/06 03:23:56;;;;;;;20.20;6.40;;;6.20;99.90;;;;;;4981767;28;20058;-65
2020/12/06 03:26:23;;;;;;;21.05;6.20;;;6.20;99.90;;;;;;4991681;28;20386;-65
2020/12/06 03:28:49;;;;;;;19.30;6.20;;;6.20;99.90;;;;;;4976403;28;20680;-65
2020/12/06 03:31:16;;;;;;;19.08;6.80;;;6.20;99.90;;;;;;4972943;28;20039;-65
2020/12/06 03:33:43;;;;;;;17.83;6.50;;;6.20;99.90;;;;;;4967652;28;20039;-63
2020/12/06 03:36:10;;;;;;;18.02;5.93;;;6.20;99.90;;;;;;4962232;28;20676;-63
2020/12/06 03:38:36;;;;;;;15.98;6.15;;;6.20;99.90;;;;;;4971390;28;20042;-63
2020/12/06 03:41:03;;;;;;;16.63;6.53;;;6.20;99.90;;;;;;4966392;28;20039;-63
2020/12/06 03:43:29;;;;;;;19.38;6.10;;;6.20;99.90;;;;;;4973670;28;20553;-63
2020/12/06 03:45:56;;;;;;;16.90;6.15;;;6.10;99.90;;;;;;4957470;28;20621;-63
2020/12/06 03:48:22;;;;;;;14.55;5.85;;;6.10;99.90;;;;;;4971161;28;20055;-63
2020/12/06 03:50:49;;;;;;;18.02;5.72;;;6.10;99.90;;;;;;4969784;28;20061;-63
2020/12/06 03:53:16;;;;;;;17.10;5.70;;;6.00;99.90;;;;;;4969215;28;20438;-63
2020/12/06 03:55:42;;;;;;;17.95;5.55;;;6.00;99.90;;;;;;4969722;28;20042;-63
2020/12/06 03:58:09;;;;;;;14.50;5.60;;;6.00;99.90;;;;;;4967623;28;20055;-63
2020/12/06 04:00:35;;;;;;;17.33;6.45;;;6.00;99.90;;;;;;4987729;28;20047;-63
2020/12/06 04:03:03;;;;;;;15.60;6.32;;;5.90;99.90;;;;;;4970227;28;20043;-63
2020/12/06 04:05:29;;;;;;;18.33;5.00;;;5.90;99.90;;;;;;4967313;28;20050;-65
2020/12/06 04:07:56;;;;;;;19.30;6.30;;;5.90;99.90;;;;;;4972279;28;20053;-65
2020/12/06 04:10:23;;;;;;;18.38;7.10;;;5.90;99.90;;;;;;4978810;28;20051;-65
2020/12/06 04:12:49;;;;;;;17.90;6.88;;;5.80;99.90;;;;;;4984010;28;20034;-65
2020/12/06 04:15:16;;;;;;;19.00;7.07;;;5.80;99.90;;;;;;4967128;28;20063;-65
2020/12/06 04:17:42;;;;;;;15.93;5.63;;;5.80;99.90;;;;;;4976783;28;20534;-65
2020/12/06 04:20:09;;;;;;;18.85;7.13;;;5.70;99.90;;;;;;4965395;28;20525;-65
2020/12/06 04:22:36;;;;;;;19.17;7.15;;;5.70;99.90;;;;;;4970996;28;20043;-65
2020/12/06 04:25:04;;;;;;;17.50;6.30;;;5.70;99.90;;;;;;4977711;28;20405;-65
2020/12/06 04:27:30;;;;;;;18.15;6.28;;;5.60;99.90;;;;;;4975579;28;20051;-65
2020/12/06 04:29:57;;;;;;;21.27;5.85;;;5.60;99.90;;;;;;4974602;28;20034;-65
2020/12/06 04:32:24;;;;;;;17.08;5.93;;;5.60;99.90;;;;;;4974982;28;20038;-65
2020/12/06 04:34:50;;;;;;;17.65;5.82;;;5.60;99.90;;;;;;4975452;28;20174;-65
2020/12/06 04:37:17;;;;;;;17.23;6.10;;;5.60;99.90;;;;;;4960265;28;20049;-65
2020/12/06 04:39:43;;;;;;;14.48;4.97;;;5.60;99.90;;;;;;4970422;28;20046;-65
2020/12/06 04:42:10;;;;;;;19.48;5.57;;;5.60;99.90;;;;;;4967621;28;20054;-65
2020/12/06 04:44:37;;;;;;;11.73;4.85;;;5.60;99.90;;;;;;4961682;28;20042;-65
2020/12/06 04:47:06;;;;;;;18.85;6.05;;;5.60;99.90;;;;;;4974740;28;20378;-65
2020/12/06 04:49:45;;;;;;;15.95;6.38;;;5.50;99.90;;;;;;4958942;28;20059;-65
2020/12/06 04:52:16;;;;;;;16.73;6.25;;;5.60;99.90;;;;;;4961130;28;20138;-65
2020/12/06 04:54:49;;;;;;;20.92;6.18;;;5.60;99.90;;;;;;4972437;28;20351;-65
2020/12/06 04:57:18;;;;;;;20.17;6.65;;;5.50;99.90;;;;;;4980096;28;20044;-65
2020/12/06 04:59:47;;;;;;;19.30;7.88;;;5.50;99.90;;;;;;4969804;28;20048;-65
2020/12/06 05:02:19;;;;;;;19.55;6.75;;;5.50;99.90;;;;;;4965606;28;20565;-65
2020/12/06 05:04:48;;;;;;;22.30;8.20;;;5.50;99.90;;;;;;4967598;28;20130;-65
2020/12/06 05:07:18;;;;;;;24.17;8.60;;;5.40;99.90;;;;;;4970489;28;20043;-65
2020/12/06 05:09:50;;;;;;;23.15;7.22;;;5.40;99.90;;;;;;4994797;28;20050;-65
2020/12/06 05:12:17;;;;;;;17.35;7.25;;;5.30;99.90;;;;;;4969925;28;20073;-65
2020/12/06 05:14:44;;;;;;;18.73;6.57;;;5.40;99.90;;;;;;4976827;28;20046;-65
2020/12/06 05:17:12;;;;;;;21.58;8.18;;;5.30;99.90;;;;;;4981073;28;20045;-65
2020/12/06 05:19:38;;;;;;;23.10;7.82;;;5.30;99.90;;;;;;4994034;28;20100;-65
2020/12/06 05:22:06;;;;;;;18.15;6.10;;;5.20;99.90;;;;;;4989527;28;20514;-65
2020/12/06 05:24:36;;;;;;;20.42;6.93;;;5.20;99.90;;;;;;4969519;28;20042;-65
2020/12/06 05:27:03;;;;;;;17.08;7.10;;;5.20;99.90;;;;;;4978087;28;20052;-65
2020/12/06 05:29:29;;;;;;;16.13;6.15;;;5.20;99.90;;;;;;4991460;28;20382;-65
2020/12/06 05:31:58;;;;;;;17.25;6.35;;;5.20;99.90;;;;;;4960783;28;20044;-65
2020/12/06 05:34:25;;;;;;;17.83;6.43;;;5.20;99.90;;;;;;4971882;28;20043;-65
2020/12/06 05:36:51;;;;;;;17.13;6.65;;;5.20;99.90;;;;;;4980729;28;20073;-65
2020/12/06 05:39:22;;;;;;;14.95;5.60;;;5.20;99.90;;;;;;4982728;28;20046;-65
2020/12/06 05:41:49;;;;;;;13.45;4.45;;;5.20;99.90;;;;;;4968990;28;20050;-65
2020/12/06 05:44:20;;;;;;;14.00;5.00;;;5.20;99.90;;;;;;4973269;28;20516;-65
2020/12/06 05:46:50;;;;;;;18.55;5.63;;;5.20;99.90;;;;;;4972156;28;20574;-65
2020/12/06 05:49:23;;;;;;;14.73;5.43;;;5.20;99.90;;;;;;4970535;28;20043;-65
2020/12/06 05:51:51;;;;;;;14.88;6.05;;;5.30;99.90;;;;;;4974516;28;20134;-65
2020/12/06 05:54:22;;;;;;;21.65;6.10;;;5.30;99.90;;;;;;4978341;28;20045;-65
2020/12/06 05:56:53;;;;;;;16.55;6.05;;;5.30;99.90;;;;;;4963694;28;20043;-65
2020/12/06 05:59:23;;;;;;;16.52;5.78;;;5.40;99.90;;;;;;4985837;28;20061;-65
2020/12/06 06:01:52;;;;;;;15.48;5.15;;;5.40;99.90;;;;;;4969874;28;20060;-65
2020/12/06 06:04:23;;;;;;;14.65;5.25;;;5.50;99.90;;;;;;4967058;28;20416;-65
2020/12/06 06:06:53;;;;;;;17.35;5.60;;;5.50;99.90;;;;;;4982706;28;20505;-65
2020/12/06 06:09:20;;;;;;;15.45;4.90;;;5.60;99.90;;;;;;4983507;28;20054;-65
2020/12/06 06:12:16;;;;;;;19.25;5.63;;;5.70;99.90;;;;;;4992876;28;20402;-65
2020/12/06 06:14:44;;;;;;;17.15;5.55;;;5.70;99.90;;;;;;4981300;28;20046;-65
2020/12/06 06:17:13;;;;;;;14.75;5.00;;;5.80;99.90;;;;;;4982610;28;20081;-65
2020/12/06 06:19:39;;;;;;;12.90;4.68;;;5.80;99.90;;;;;;4974839;28;20046;-65
2020/12/06 06:22:06;;;;;;;16.27;5.28;;;5.90;99.90;;;;;;4969987;28;20046;-65
2020/12/06 06:24:33;;;;;;;12.82;4.97;;;6.00;99.90;;;;;;4965076;28;20051;-65
2020/12/06 06:27:01;;;;;;;13.98;4.40;;;6.00;99.90;;;;;;4966691;28;20066;-65
2020/12/06 06:29:28;;;;;;;13.98;4.68;;;6.00;99.90;;;;;;4959473;28;20506;-65
2020/12/06 06:31:54;;;;;;;14.82;5.05;;;6.10;99.90;;;;;;4972876;28;20604;-65
2020/12/06 06:34:28;;;;;;;16.63;5.63;;;6.20;99.90;;;;;;4970963;28;20061;-65
2020/12/06 06:36:55;;;;;;;16.17;5.57;;;6.20;99.90;;;;;;4984237;28;20054;-65
2020/12/06 06:39:23;;;;;;;14.55;5.13;;;6.30;99.90;;;;;;4962537;28;20043;-65
2020/12/06 06:41:57;;;;;;;12.98;4.55;;;6.30;99.90;;;;;;4974342;28;20062;-65
2020/12/06 06:44:26;;;;;;;17.50;5.03;;;6.30;99.90;;;;;;4977231;28;20047;-65
2020/12/06 06:47:01;;;;;;;13.80;4.75;;;6.40;99.90;;;;;;4972709;28;20055;-65
2020/12/06 06:49:27;;;;;;;12.07;3.92;;;6.50;99.90;;;;;;4954367;28;20066;-65
2020/12/06 06:51:54;;;;;;;12.50;4.55;;;6.60;99.90;;;;;;4978573;28;20039;-63
2020/12/06 06:54:31;;;;;;;13.88;4.72;;;6.60;99.90;;;;;;4960354;28;20039;-63
2020/12/06 06:56:58;;;;;;;12.65;4.55;;;6.70;99.90;;;;;;4975714;28;20049;-63
2020/12/06 06:59:47;;;;;;;11.60;4.40;;;6.70;99.90;;;;;;4980425;28;20054;-63
2020/12/06 07:02:42;;;;;;;13.02;4.65;;;6.80;99.90;;;;;;4971032;28;20406;-63
2020/12/06 07:05:11;;;;;;;12.60;3.83;;;6.90;99.90;;;;;;4964694;28;20042;-61
2020/12/06 07:07:49;;;;;;;12.25;4.13;;;7.00;99.90;;;;;;4988676;28;20043;-61
2020/12/06 07:10:18;;;;;;;13.20;4.43;;;7.10;99.90;;;;;;4971479;28;20050;-61
2020/12/06 07:12:45;;;;;;;11.43;4.70;;;7.20;99.90;;;;;;4970342;28;20046;-61
2020/12/06 07:15:13;;;;;;;12.98;5.15;;;7.30;99.90;;;;;;4968812;28;20109;-61
2020/12/06 07:17:40;;;;;;;18.15;7.47;;;7.30;99.90;;;;;;4986355;28;20039;-62
2020/12/06 07:20:09;;;;;;;12.77;5.78;;;7.40;99.90;;;;;;4964056;28;20039;-61
2020/12/06 07:22:37;;;;;;;13.30;5.40;;;7.50;99.90;;;;;;4983928;28;20043;-61
2020/12/06 07:25:05;;;;;;;12.45;4.75;;;7.60;99.90;;;;;;4964924;28;20039;-61
2020/12/06 07:27:32;;;;;;;11.75;3.78;;;7.70;99.90;;;;;;4959188;28;20058;-61
2020/12/06 07:30:05;;;;;;;13.85;4.57;;;7.70;99.90;;;;;;4988241;28;20054;-61
2020/12/06 07:32:32;;;;;;;;;;;7.80;99.90;;;;;;4969912;28;20034;-61
2020/12/06 07:34:58;;;;;;;10.93;4.35;;;7.90;99.90;;;;;;4976554;28;19922;-61
2020/12/06 07:37:25;;;;;;;9.65;3.80;;;8.00;99.90;;;;;;4962964;28;20049;-61
2020/12/06 07:39:53;;;;;;;10.23;4.30;;;8.10;99.90;;;;;;4964957;28;20050;-61
2020/12/06 07:42:26;;;;;;;8.93;4.10;;;8.20;99.90;;;;;;4965001;28;20152;-61
2020/12/06 07:44:56;;;;;;;10.52;4.03;;;8.30;99.90;;;;;;4968653;28;20053;-61
2020/12/06 07:47:24;;;;;;;11.02;4.18;;;8.50;99.90;;;;;;4998502;28;20501;-61
2020/12/06 07:49:53;;;;;;;8.77;3.65;;;8.60;99.90;;;;;;4968010;28;20051;-61
2020/12/06 07:52:28;;;;;;;12.00;4.90;;;8.70;99.90;;;;;;4970736;28;20034;-61
2020/12/06 07:54:58;;;;;;;12.40;4.35;;;8.80;99.90;;;;;;4970089;28;20031;-61
2020/12/06 07:57:41;;;;;;;11.00;4.45;;;8.90;99.90;;;;;;4971755;28;20098;-61
2020/12/06 08:00:13;;;;;;;11.93;3.80;;;9.00;99.90;;;;;;4980073;28;20966;-61
2020/12/06 08:02:46;;;;;;;12.85;4.63;;;9.00;99.90;;;;;;4967148;28;20233;-61
2020/12/06 08:05:19;;;;;;;10.75;4.85;;;9.00;99.90;;;;;;4962234;28;20058;-62
2020/12/06 08:07:50;;;;;;;10.18;4.00;;;9.10;99.90;;;;;;4969736;28;20054;-60
2020/12/06 08:10:18;;;;;;;14.88;4.90;;;9.20;99.90;;;;;;4974457;28;20050;-61
2020/12/06 08:12:47;;;;;;;10.32;4.50;;;9.20;99.90;;;;;;4967072;28;20051;-60
2020/12/06 08:15:13;;;;;;;11.10;3.97;;;9.20;99.90;;;;;;4971264;28;20042;-59
2020/12/06 08:17:47;;;;;;;11.07;3.67;;;9.10;99.90;;;;;;4965289;28;20038;-61
2020/12/06 08:20:19;;;;;;;9.95;4.15;;;9.00;99.90;;;;;;4980155;28;20078;-61
2020/12/06 08:22:56;;;;;;;12.57;3.72;;;8.90;99.90;;;;;;4979180;28;20405;-61
2020/12/06 08:25:24;;;;;;;11.38;4.15;;;8.90;99.90;;;;;;4970433;28;20047;-61
2020/12/06 08:27:51;;;;;;;12.65;4.38;;;8.80;99.90;;;;;;4966218;28;20049;-60
2020/12/06 08:30:19;;;;;;;9.50;4.03;;;8.80;99.90;;;;;;4960640;28;20413;-60
2020/12/06 08:33:04;;;;;;;9.75;4.25;;;8.80;99.90;;;;;;4963297;28;20156;-61
2020/12/06 08:35:41;;;;;;;10.95;4.53;;;8.80;99.90;;;;;;4971263;28;20504;-61
2020/12/06 08:38:38;;;;;;;8.95;4.32;;;8.90;99.90;;;;;;4935142;28;20047;-60
2020/12/06 08:41:05;;;;;;;13.57;4.43;;;8.90;99.90;;;;;;4961321;28;20047;-60
2020/12/06 08:43:48;;;;;;;11.13;4.40;;;9.00;99.90;;;;;;4966214;28;20050;-61
2020/12/06 08:46:24;;;;;;;11.27;4.05;;;9.00;99.90;;;;;;4961851;28;20034;-60
2020/12/06 08:48:56;;;;;;;12.27;4.07;;;9.10;99.90;;;;;;4959415;28;20057;-60
2020/12/06 08:51:33;;;;;;;10.40;4.43;;;9.10;99.90;;;;;;4956622;28;20039;-60
2020/12/06 08:54:02;;;;;;;10.73;4.18;;;9.20;99.90;;;;;;4954010;28;20490;-61
2020/12/06 08:56:37;;;;;;;9.40;4.03;;;9.30;99.90;;;;;;4958345;28;20597;-61
2020/12/06 08:59:14;;;;;;;10.82;4.50;;;9.30;99.90;;;;;;4964351;28;20129;-61
2020/12/06 09:01:51;;;;;;;10.38;4.15;;;9.50;99.90;;;;;;4963350;28;20066;-60
2020/12/06 09:04:19;;;;;;;9.45;3.55;;;9.60;99.90;;;;;;4962880;28;20590;-60
2020/12/06 09:06:46;;;;;;;8.68;3.55;;;9.70;99.90;;;;;;4958421;28;20054;-60
2020/12/06 09:09:14;;;;;;;12.35;4.82;;;9.90;99.90;;;;;;4965243;28;20585;-60
2020/12/06 09:11:40;;;;;;;10.63;4.20;;;10.00;99.90;;;;;;4979824;28;20039;-61
2020/12/06 09:14:07;;;;;;;13.45;4.80;;;10.10;99.90;;;;;;4960717;28;20046;-61
2020/12/06 09:16:37;;;;;;;17.40;5.35;;;10.30;99.90;;;;;;4970484;28;20472;-60
2020/12/06 09:19:03;;;;;;;9.07;3.45;;;10.40;99.90;;;;;;4965709;28;20050;-60
2020/12/06 09:21:30;;;;;;;8.98;3.78;;;10.60;99.90;;;;;;4964193;28;20058;-60
2020/12/06 09:23:56;;;;;;;9.98;4.57;;;10.70;99.90;;;;;;4963325;28;20050;-61
2020/12/06 09:26:23;;;;;;;11.80;4.70;;;10.70;99.90;;;;;;4973261;28;20461;-61
2020/12/06 09:28:49;;;;;;;18.60;6.72;;;10.70;99.90;;;;;;4981996;28;20042;-61
2020/12/06 09:31:21;;;;;;;10.88;4.15;;;10.80;99.90;;;;;;4964386;28;20831;-61
2020/12/06 09:33:47;;;;;;;8.73;3.05;;;10.80;99.90;;;;;;4955995;28;20450;-61
2020/12/06 09:36:14;;;;;;;13.75;4.88;;;10.90;99.90;;;;;;4957882;28;20417;-61
2020/12/06 09:38:41;;;;;;;9.52;3.67;;;11.10;99.90;;;;;;4967431;28;20177;-61
2020/12/06 09:41:12;;;;;;;10.82;4.03;;;11.20;99.90;;;;;;4963221;28;20066;-60
2020/12/06 09:43:39;;;;;;;9.77;3.47;;;11.40;99.90;;;;;;4967905;28;20117;-60
2020/12/06 09:46:08;;;;;;;9.45;3.78;;;11.50;99.90;;;;;;4961360;28;20046;-60
2020/12/06 09:48:35;;;;;;;11.20;4.13;;;11.90;99.90;;;;;;4979687;28;20070;-60
2020/12/06 09:51:02;;;;;;;6.93;3.83;;;12.10;99.80;;;;;;4966716;28;20047;-61
2020/12/06 09:53:29;;;;;;;8.55;3.40;;;12.30;97.90;;;;;;4970154;28;20167;-60
2020/12/06 09:55:55;;;;;;;8.18;3.13;;;12.20;97.50;;;;;;4967428;28;21283;-61
2020/12/06 09:58:23;;;;;;;9.75;4.13;;;12.30;98.10;;;;;;4972247;28;20059;-59
2020/12/06 10:00:49;;;;;;;8.90;4.18;;;12.60;97.40;;;;;;4965280;28;20096;-59
2020/12/06 10:03:16;;;;;;;8.05;3.42;;;12.90;96.30;;;;;;4984738;28;20055;-60
2020/12/06 10:05:43;;;;;;;9.57;3.65;;;12.80;94.60;;;;;;4969589;28;20043;-60
2020/12/06 10:08:10;;;;;;;10.98;4.78;;;12.80;94.60;;;;;;4969716;28;20047;-60
2020/12/06 10:10:37;;;;;;;9.00;3.97;;;12.60;95.00;;;;;;4967606;28;20050;-60
2020/12/06 10:13:03;;;;;;;11.02;4.10;;;12.40;95.50;;;;;;4961567;28;20408;-60
2020/12/06 10:31:24;;;;;;;8.63;4.15;;;11.50;98.10;;;;;;5086411;27;20439;-64
2020/12/06 10:33:51;;;;;;;9.60;4.40;;;11.20;99.90;;;;;;5059424;28;20128;-62
2020/12/06 10:36:21;;;;;;;10.48;4.43;;;11.30;99.90;;;;;;5046252;28;20122;-63
2020/12/06 10:38:48;;;;;;;10.80;4.03;;;11.30;99.90;;;;;;5060974;28;20379;-64
2020/12/06 10:41:15;;;;;;;12.20;4.43;;;11.40;99.90;;;;;;5066221;28;20033;-64
2020/12/06 10:43:42;;;;;;;9.65;4.03;;;11.50;99.90;;;;;;5064084;28;20033;-63
2020/12/06 10:46:09;;;;;;;11.68;4.10;;;11.70;99.90;;;;;;5060724;28;20122;-62
2020/12/06 10:48:36;;;;;;;9.65;3.78;;;12.00;99.80;;;;;;5061330;28;20075;-61
2020/12/06 10:51:04;;;;;;;8.60;4.05;;;12.50;98.90;;;;;;5056865;28;20049;-61
2020/12/06 10:53:30;;;;;;;8.95;3.83;;;13.00;97.10;;;;;;5047519;28;20051;-62
2020/12/06 10:55:57;;;;;;;11.65;4.60;;;13.40;95.60;;;;;;5065774;28;20066;-62
2020/12/06 10:58:24;;;;;;;8.45;3.70;;;13.80;93.90;;;;;;5068284;28;20095;-62
2020/12/06 11:00:51;;;;;;;10.02;4.80;;;13.90;93.00;;;;;;5064606;28;20431;-62
2020/12/06 11:03:18;;;;;;;11.38;3.85;;;14.20;91.80;;;;;;5060447;28;20127;-62
2020/12/06 11:05:45;;;;;;;11.98;4.85;;;14.10;91.90;;;;;;5065846;28;20043;-62
2020/12/06 11:08:11;;;;;;;8.50;4.18;;;14.10;91.50;;;;;;5063223;28;20072;-63
2020/12/06 11:10:38;;;;;;;9.13;3.85;;;14.20;91.40;;;;;;5047277;28;20228;-63
2020/12/06 11:13:05;;;;;;;10.35;4.03;;;14.20;91.40;;;;;;5059313;28;20135;-64
2020/12/06 11:15:31;;;;;;;9.07;3.70;;;14.10;91.50;;;;;;5056243;28;20051;-63
2020/12/06 11:18:08;;;;;;;9.73;3.92;;;14.00;91.50;;;;;;5063470;28;20414;-63
2020/12/06 11:20:35;;;;;;;9.75;4.15;;;14.00;91.40;;;;;;5060375;28;20065;-63
2020/12/06 11:23:02;;;;;;;9.45;4.75;;;14.10;91.60;;;;;;5058344;28;20044;-63
2020/12/06 11:25:28;;;;;;;8.73;3.50;;;14.30;91.60;;;;;;5058680;28;20071;-63
2020/12/06 11:27:57;;;;;;;9.05;3.95;;;14.50;91.10;;;;;;5062002;28;20051;-62
2020/12/06 11:30:23;;;;;;;9.75;3.78;;;14.70;90.30;;;;;;5076564;28;20056;-63
2020/12/06 11:32:50;;;;;;;9.63;3.58;;;14.70;90.00;;;;;;5058120;28;20045;-63
2020/12/06 11:35:17;;;;;;;8.63;3.45;;;14.70;89.70;;;;;;5074640;28;20135;-63
2020/12/06 11:37:44;;;;;;;10.60;4.15;;;14.80;89.40;;;;;;5069106;28;20052;-63
2020/12/06 11:40:11;;;;;;;7.65;3.00;;;15.00;87.80;;;;;;5066070;28;20090;-63
2020/12/06 11:42:38;;;;;;;7.00;3.20;;;15.30;86.60;;;;;;5064761;28;20367;-63
2020/12/06 11:45:05;;;;;;;7.82;3.38;;;15.30;84.80;;;;;;5069204;28;20040;-63
2020/12/06 11:47:32;;;;;;;8.30;3.45;;;15.50;84.00;;;;;;5073730;28;20046;-63
2020/12/06 11:50:00;;;;;;;4.75;2.67;;;15.60;82.60;;;;;;5065461;28;20040;-63
2020/12/06 11:52:29;;;;;;;4.28;1.58;;;15.60;80.90;;;;;;5056816;28;20044;-64
2020/12/06 11:54:56;;;;;;;5.32;1.60;;;16.00;78.20;;;;;;5079195;28;20048;-63
2020/12/06 11:57:22;;;;;;;7.57;2.33;;;16.30;75.60;;;;;;5065461;28;20064;-63
2020/12/06 11:59:49;;;;;;;4.88;1.95;;;16.40;74.20;;;;;;5069655;28;20043;-64
2020/12/06 12:02:16;;;;;;;4.88;2.15;;;16.60;72.80;;;;;;5065504;28;20179;-64
2020/12/06 12:04:43;;;;;;;5.13;1.90;;;16.80;71.60;;;;;;5065795;28;20098;-64
2020/12/06 12:07:10;;;;;;;4.63;1.38;;;16.70;71.30;;;;;;5068011;28;20748;-64
2020/12/06 12:09:36;;;;;;;5.47;2.28;;;16.90;70.80;;;;;;5071764;28;20062;-63
2020/12/06 12:12:03;;;;;;;6.65;2.92;;;17.20;70.00;;;;;;5073510;28;20490;-63
2020/12/06 12:14:30;;;;;;;6.75;3.45;;;17.30;68.40;;;;;;5069190;28;20471;-63
2020/12/06 12:16:57;;;;;;;7.05;2.08;;;16.90;69.10;;;;;;5071240;28;20063;-62
2020/12/06 12:19:24;;;;;;;6.22;2.03;;;16.70;70.60;;;;;;5069407;28;20086;-62
2020/12/06 12:21:51;;;;;;;6.68;2.55;;;16.80;70.70;;;;;;5056866;28;21268;-63
2020/12/06 12:24:18;;;;;;;6.68;3.15;;;17.10;69.10;;;;;;5066213;28;20040;-63
2020/12/06 12:26:44;;;;;;;6.15;3.03;;;17.10;68.40;;;;;;5068893;28;20056;-63
2020/12/06 12:29:11;;;;;;;5.32;1.77;;;17.00;68.50;;;;;;5068763;28;20072;-63
2020/12/06 12:31:43;;;;;;;5.65;2.60;;;16.80;69.70;;;;;;5068784;28;20566;-63
2020/12/06 12:34:13;;;;;;;7.63;3.00;;;16.70;70.00;;;;;;5060255;28;20099;-63
2020/12/06 12:36:41;;;;;;;7.97;3.05;;;16.80;70.30;;;;;;5062782;28;20049;-63
2020/12/06 12:39:08;;;;;;;6.20;2.45;;;16.80;70.50;;;;;;5066327;28;20041;-63
2020/12/06 12:41:35;;;;;;;4.80;1.85;;;16.80;70.70;;;;;;5066739;28;20040;-63
2020/12/06 12:44:04;;;;;;;5.82;2.38;;;16.70;71.30;;;;;;5067134;28;20043;-63
2020/12/06 12:46:32;;;;;;;6.55;2.15;;;16.50;72.00;;;;;;5069993;28;20033;-63
2020/12/06 12:49:00;;;;;;;8.85;2.83;;;16.50;71.80;;;;;;5072473;28;20028;-64
2020/12/06 12:51:27;;;;;;;6.45;2.33;;;16.40;71.40;;;;;;5077570;28;20431;-63
2020/12/06 12:53:55;;;;;;;10.48;4.07;;;16.10;72.20;;;;;;5073322;28;20044;-63
2020/12/06 12:56:23;;;;;;;5.60;2.45;;;15.90;72.70;;;;;;5065840;28;20052;-63
2020/12/06 12:58:51;;;;;;;7.03;2.83;;;15.60;73.00;;;;;;5066436;28;20064;-64
2020/12/06 13:01:25;;;;;;;5.20;2.40;;;15.20;73.50;;;;;;5065052;28;20064;-64
2020/12/06 13:03:52;;;;;;;13.45;5.40;;;15.10;74.20;;;;;;5067054;28;20051;-63
2020/12/06 13:06:22;;;;;;;9.75;4.18;;;14.90;75.50;;;;;;5068028;28;20422;-63